Terminal Aerodrome Forecast
Issued by NWS

Home | Current Version | Previous Version | Text Only | Print | Product List | Glossary Off
Versions: 1 2 3 4 5 6 7 8 9 10 11 12 13 14 15

000
FTUS45 KGGW 220533
TAFSDY
TAF
KSDY 220533Z 2206/2306 VRB03KT P6SM SKC
     FM221800 09005KT P6SM BKN100
     FM222000 03006KT P6SM VCTS BKN100CB
     FM222200 01009KT P6SM BKN080 PROB30 2222/2304 -TSRA OVC080CB
     FM230500 05007KT P6SM VCTS BKN080CB=

USA.gov is the U.S. government's official web portal to all federal, state and local government web resources and services.